createdAt,value
2016-11-16T00:00:30.631Z,1012.6
2016-11-16T00:01:45.304Z,1012.58
2016-11-16T00:03:00.168Z,1012.61
2016-11-16T00:04:14.823Z,1012.61
2016-11-16T00:05:29.632Z,1012.64
2016-11-16T00:06:44.046Z,1012.6
2016-11-16T00:07:58.757Z,1012.59
2016-11-16T00:09:12.977Z,1012.62
2016-11-16T00:10:27.005Z,1012.61
2016-11-16T00:11:42.248Z,1012.6
2016-11-16T00:12:57.580Z,1012.58
2016-11-16T00:14:12.843Z,1012.59
2016-11-16T00:15:27.318Z,1012.6
2016-11-16T00:16:42.400Z,1012.61
2016-11-16T00:17:57.747Z,1012.6
2016-11-16T00:19:12.759Z,1012.54
2016-11-16T00:20:27.212Z,1012.55
2016-11-16T00:21:41.425Z,1012.55
2016-11-16T00:22:55.822Z,1012.51
2016-11-16T00:24:10.867Z,1012.49
2016-11-16T00:25:25.117Z,1012.5
2016-11-16T00:26:39.749Z,1012.45
2016-11-16T00:27:53.981Z,1012.5
2016-11-16T00:29:08.448Z,1012.5
2016-11-16T00:30:23.237Z,1012.46
2016-11-16T00:31:38.038Z,1012.51
2016-11-16T00:34:21.103Z,1012.39
2016-11-16T00:35:35.837Z,1012.42
2016-11-16T00:36:50.117Z,1012.43
2016-11-16T00:38:04.423Z,1012.46
2016-11-16T00:39:18.829Z,1012.43
2016-11-16T00:40:33.198Z,1012.41
2016-11-16T00:41:48.151Z,1012.35
2016-11-16T00:43:02.474Z,1012.37
2016-11-16T00:44:16.815Z,1012.35
2016-11-16T00:45:31.696Z,1012.34
2016-11-16T00:46:46.027Z,1012.4
2016-11-16T00:48:00.614Z,1012.38
2016-11-16T00:49:15.082Z,1012.41
2016-11-16T00:50:29.904Z,1012.4
2016-11-16T00:51:44.692Z,1012.4
2016-11-16T00:52:59.498Z,1012.39
2016-11-16T00:55:38.221Z,1012.39
2016-11-16T00:56:52.939Z,1012.41
2016-11-16T00:58:07.715Z,1012.38
2016-11-16T00:59:22.541Z,1012.31
2016-11-16T01:00:37.263Z,1012.4
2016-11-16T01:01:52.179Z,1012.33
2016-11-16T01:03:07.445Z,1012.34
2016-11-16T01:04:22.631Z,1012.37
2016-11-16T01:10:51.088Z,1012.34
2016-11-16T01:12:05.770Z,1012.28
2016-11-16T01:13:21.209Z,1012.25
2016-11-16T01:14:35.663Z,1012.26
2016-11-16T01:15:50.143Z,1012.28
2016-11-16T01:17:04.859Z,1012.3
2016-11-16T01:18:19.721Z,1012.29
2016-11-16T01:19:34.327Z,1012.23
2016-11-16T01:20:49.022Z,1012.19
2016-11-16T01:22:03.181Z,1012.21
2016-11-16T01:23:17.914Z,1012.21
2016-11-16T01:24:33.027Z,1012.18
2016-11-16T01:25:47.392Z,1012.15
2016-11-16T01:27:01.991Z,1012.18
2016-11-16T01:28:16.385Z,1012.17
2016-11-16T01:29:31.168Z,1012.16
2016-11-16T01:30:45.888Z,1012.19
2016-11-16T01:32:00.370Z,1012.1
2016-11-16T01:33:14.654Z,1012.15
2016-11-16T01:34:28.943Z,1012.14
2016-11-16T01:35:43.256Z,1012.09
2016-11-16T01:36:58.802Z,1012.09
2016-11-16T01:38:12.827Z,1012.05
2016-11-16T01:39:27.302Z,1012.11
2016-11-16T01:43:57.088Z,1012.1
2016-11-16T01:45:13.280Z,1012.09
2016-11-16T01:48:24.958Z,1012.08
2016-11-16T01:51:30.970Z,1012.06
2016-11-16T01:52:45.510Z,1011.95
2016-11-16T01:57:25.365Z,1012.02
2016-11-16T02:00:27.806Z,1011.98
2016-11-16T02:01:42.409Z,1012.02
2016-11-16T02:02:57.459Z,1012.05
2016-11-16T02:04:11.704Z,1012.1
2016-11-16T02:05:26.008Z,1012.07
2016-11-16T02:06:40.599Z,1012.05
2016-11-16T02:07:54.916Z,1012.03
2016-11-16T02:09:09.812Z,1011.99
2016-11-16T02:11:06.375Z,1011.99
2016-11-16T02:12:33.838Z,1011.99
2016-11-16T02:13:48.278Z,1011.95
2016-11-16T02:15:03.115Z,1011.96
2016-11-16T02:16:17.884Z,1011.9
2016-11-16T02:17:32.516Z,1011.89
2016-11-16T02:18:47.277Z,1011.88
2016-11-16T02:20:01.648Z,1011.87
2016-11-16T02:21:16.053Z,1011.82
2016-11-16T02:22:30.588Z,1011.83
2016-11-16T02:23:44.890Z,1011.79
2016-11-16T02:24:59.427Z,1011.75
2016-11-16T02:26:13.706Z,1011.71
2016-11-16T02:28:42.856Z,1011.6
2016-11-16T02:29:57.358Z,1011.58
2016-11-16T02:31:11.967Z,1011.59
2016-11-16T02:32:26.386Z,1011.63
2016-11-16T02:33:41.228Z,1011.62
2016-11-16T02:34:58.167Z,1011.61
2016-11-16T02:36:12.656Z,1011.59
2016-11-16T02:37:28.045Z,1011.53
2016-11-16T02:38:57.418Z,1011.54
2016-11-16T02:40:12.068Z,1011.51
2016-11-16T02:41:27.007Z,1011.54
2016-11-16T02:42:41.661Z,1011.53
2016-11-16T02:43:56.615Z,1011.5
2016-11-16T02:45:11.149Z,1011.52
2016-11-16T02:46:45.220Z,1011.47
2016-11-16T02:47:59.884Z,1011.43
2016-11-16T02:49:14.492Z,1011.43
2016-11-16T02:50:28.978Z,1011.4
2016-11-16T02:51:43.489Z,1011.4
2016-11-16T02:52:58.642Z,1011.37
2016-11-16T02:54:13.535Z,1011.35
2016-11-16T02:55:28.788Z,1011.33
2016-11-16T02:56:43.626Z,1011.33
2016-11-16T02:57:57.948Z,1011.32
2016-11-16T02:59:27.397Z,1011.28
2016-11-16T03:02:22.836Z,1011.26
2016-11-16T03:04:34.780Z,1011.2
2016-11-16T03:08:39.525Z,1011.18
2016-11-16T03:10:14.005Z,1011.23
2016-11-16T03:11:29.190Z,1011.22
2016-11-16T03:12:43.846Z,1011.22
2016-11-16T03:13:58.193Z,1011.24
2016-11-16T03:15:12.731Z,1011.26
2016-11-16T03:16:27.407Z,1011.21
2016-11-16T03:17:42.302Z,1011.18
2016-11-16T03:18:56.902Z,1011.17
2016-11-16T03:20:11.559Z,1011.16
2016-11-16T03:21:26.614Z,1011.17
2016-11-16T03:22:41.223Z,1011.14
2016-11-16T03:24:15.340Z,1011.12
2016-11-16T03:25:29.974Z,1011.05
2016-11-16T03:26:44.947Z,1011.06
2016-11-16T03:27:59.661Z,1011
2016-11-16T03:29:14.412Z,1011.04
2016-11-16T03:30:29.279Z,1011.01
2016-11-16T03:31:44.654Z,1010.95
2016-11-16T03:32:59.630Z,1010.98
2016-11-16T03:34:14.168Z,1010.96
2016-11-16T03:35:28.823Z,1010.96
2016-11-16T03:36:43.554Z,1010.93
2016-11-16T03:38:03.340Z,1010.91
2016-11-16T03:39:19.161Z,1010.9
2016-11-16T03:40:34.184Z,1010.86
2016-11-16T03:41:48.761Z,1010.86
2016-11-16T03:43:03.963Z,1010.87
2016-11-16T03:44:18.111Z,1010.82
2016-11-16T03:45:58.597Z,1010.77
2016-11-16T03:47:12.830Z,1010.83
2016-11-16T03:48:27.588Z,1010.78
2016-11-16T03:49:42.686Z,1010.77
2016-11-16T03:50:57.825Z,1010.8
2016-11-16T03:52:12.270Z,1010.76
2016-11-16T03:53:27.369Z,1010.69
2016-11-16T03:54:42.193Z,1010.7
2016-11-16T03:55:56.643Z,1010.75
2016-11-16T03:57:39.870Z,1010.69
2016-11-16T03:58:54.237Z,1010.66
2016-11-16T04:00:23.665Z,1010.7
2016-11-16T04:01:58.211Z,1010.63
2016-11-16T04:03:13.135Z,1010.58
2016-11-16T04:05:44.055Z,1010.57
2016-11-16T04:06:58.929Z,1010.57
2016-11-16T04:10:07.484Z,1010.52
2016-11-16T04:12:49.870Z,1010.47
2016-11-16T04:14:06.135Z,1010.48
2016-11-16T04:15:21.543Z,1010.38
2016-11-16T04:16:36.136Z,1010.46
2016-11-16T04:18:01.302Z,1010.45
2016-11-16T04:19:16.596Z,1010.4
2016-11-16T04:20:31.967Z,1010.39
2016-11-16T04:21:46.721Z,1010.36
2016-11-16T04:23:02.009Z,1010.4
2016-11-16T04:24:17.605Z,1010.42
2016-11-16T04:25:51.659Z,1010.42
2016-11-16T04:27:06.688Z,1010.4
2016-11-16T04:28:21.888Z,1010.38
2016-11-16T04:29:37.302Z,1010.4
2016-11-16T04:30:52.530Z,1010.36
2016-11-16T04:32:07.239Z,1010.32
2016-11-16T04:33:22.957Z,1010.33
2016-11-16T04:34:38.709Z,1010.34
2016-11-16T04:36:02.699Z,1010.31
2016-11-16T04:37:23.023Z,1010.32
2016-11-16T04:38:44.242Z,1010.26
2016-11-16T04:40:41.092Z,1010.17
2016-11-16T04:42:02.135Z,1010.17
2016-11-16T04:45:28.885Z,1010.14
2016-11-16T04:46:43.753Z,1010.09
2016-11-16T04:52:24.700Z,1009.99
2016-11-16T04:53:39.331Z,1010.04
2016-11-16T04:54:53.955Z,1010.01
2016-11-16T04:56:08.825Z,1010.02
2016-11-16T04:57:23.737Z,1009.99
2016-11-16T04:58:38.785Z,1010.03
2016-11-16T05:00:13.061Z,1010
2016-11-16T05:01:28.360Z,1009.96
2016-11-16T05:02:43.443Z,1010.01
2016-11-16T05:04:12.519Z,1009.95
2016-11-16T05:05:27.101Z,1009.93
2016-11-16T05:07:00.695Z,1009.9
2016-11-16T05:08:15.755Z,1009.84
2016-11-16T05:09:30.918Z,1009.89
2016-11-16T05:10:45.743Z,1009.83
2016-11-16T05:12:00.632Z,1009.81
2016-11-16T05:14:12.589Z,1009.79
2016-11-16T05:15:27.879Z,1009.76
2016-11-16T05:16:42.653Z,1009.79
2016-11-16T05:17:57.561Z,1009.75
2016-11-16T05:19:11.996Z,1009.68
2016-11-16T05:20:45.770Z,1009.71
2016-11-16T05:22:04.448Z,1009.57
2016-11-16T05:23:19.446Z,1009.65
2016-11-16T05:24:46.500Z,1009.63
2016-11-16T05:26:01.161Z,1009.63
2016-11-16T05:28:44.537Z,1009.58
2016-11-16T05:31:06.011Z,1009.56
2016-11-16T05:32:46.187Z,1009.56
2016-11-16T05:34:01.326Z,1009.48
2016-11-16T05:38:29.018Z,1009.43
2016-11-16T05:39:44.193Z,1009.47
2016-11-16T05:40:59.000Z,1009.49
2016-11-16T05:43:11.214Z,1009.51
2016-11-16T05:44:26.370Z,1009.47
2016-11-16T05:48:00.618Z,1009.56
2016-11-16T05:49:15.822Z,1009.57
2016-11-16T05:50:30.514Z,1009.55
2016-11-16T05:54:17.523Z,1009.45
2016-11-16T05:55:32.193Z,1009.4
2016-11-16T05:56:46.864Z,1009.44
2016-11-16T05:58:02.399Z,1009.41
2016-11-16T05:59:46.552Z,1009.4
2016-11-16T06:01:02.553Z,1009.37
2016-11-16T06:02:17.743Z,1009.37
2016-11-16T06:03:33.815Z,1009.29
2016-11-16T06:06:35.954Z,1009.33
2016-11-16T06:08:01.029Z,1009.33
2016-11-16T06:09:15.963Z,1009.36
2016-11-16T06:10:30.725Z,1009.34
2016-11-16T06:13:58.231Z,1009.33
2016-11-16T06:15:13.036Z,1009.3
2016-11-16T06:16:27.851Z,1009.33
2016-11-16T06:23:10.596Z,1009.25
2016-11-16T06:24:25.756Z,1009.23
2016-11-16T06:25:41.317Z,1009.27
2016-11-16T06:26:56.339Z,1009.21
2016-11-16T06:28:29.902Z,1009.23
2016-11-16T06:29:45.187Z,1009.21
2016-11-16T06:31:00.129Z,1009.22
2016-11-16T06:32:14.855Z,1009.21
2016-11-16T06:33:44.684Z,1009.19
2016-11-16T06:34:59.814Z,1009.2
2016-11-16T06:37:11.564Z,1009.22
2016-11-16T06:38:26.332Z,1009.27
2016-11-16T06:44:33.248Z,1009.26
2016-11-16T06:45:48.041Z,1009.22
2016-11-16T06:47:02.154Z,1009.23
2016-11-16T06:48:16.866Z,1009.29
2016-11-16T06:51:36.510Z,1009.26
2016-11-16T06:52:52.671Z,1009.22
2016-11-16T06:56:52.541Z,1009.15
2016-11-16T06:59:33.687Z,1009.15
2016-11-16T07:00:48.146Z,1009.13
2016-11-16T07:02:02.654Z,1009.12
2016-11-16T07:03:30.363Z,1009.09
2016-11-16T07:04:45.290Z,1009.04
2016-11-16T07:06:32.486Z,1009.01
2016-11-16T07:07:47.475Z,1008.97
2016-11-16T07:09:02.195Z,1008.98
2016-11-16T07:10:17.087Z,1009.02
2016-11-16T07:12:04.092Z,1008.92
2016-11-16T07:13:18.760Z,1008.95
2016-11-16T07:14:33.171Z,1008.98
2016-11-16T07:18:06.777Z,1008.94
2016-11-16T07:20:07.590Z,1008.91
2016-11-16T07:21:22.302Z,1008.88
2016-11-16T07:24:23.086Z,1008.99
2016-11-16T07:27:36.477Z,1008.95
2016-11-16T07:28:51.102Z,1009.05
2016-11-16T07:31:19.661Z,1008.95
2016-11-16T07:32:34.034Z,1008.97
2016-11-16T07:33:50.129Z,1008.98
2016-11-16T07:35:04.912Z,1008.99
2016-11-16T07:36:20.078Z,1008.92
2016-11-16T07:37:34.466Z,1008.91
2016-11-16T07:39:07.917Z,1008.94
2016-11-16T07:40:23.001Z,1008.96
2016-11-16T07:45:10.712Z,1009
2016-11-16T07:46:26.059Z,1008.99
2016-11-16T07:47:40.614Z,1008.97
2016-11-16T07:48:55.615Z,1009.02
2016-11-16T07:51:54.797Z,1008.99
2016-11-16T07:53:23.916Z,1008.95
2016-11-16T07:55:40.450Z,1008.93
2016-11-16T07:57:10.057Z,1008.91
2016-11-16T08:00:11.333Z,1008.94
2016-11-16T08:01:26.241Z,1008.95
2016-11-16T08:02:40.784Z,1008.96
2016-11-16T08:06:39.584Z,1008.94
2016-11-16T08:13:04.784Z,1008.89
2016-11-16T08:14:19.495Z,1008.87
2016-11-16T08:15:33.853Z,1008.89
2016-11-16T08:16:48.431Z,1008.84
2016-11-16T08:18:03.414Z,1008.82
2016-11-16T08:24:34.811Z,1008.92
2016-11-16T08:25:51.817Z,1008.84
2016-11-16T08:27:06.269Z,1008.86
2016-11-16T08:30:08.277Z,1008.84
2016-11-16T08:31:23.557Z,1008.82
2016-11-16T08:32:38.321Z,1008.79
2016-11-16T08:34:07.946Z,1008.76
2016-11-16T08:35:22.779Z,1008.75
2016-11-16T08:36:37.539Z,1008.7
2016-11-16T08:37:52.544Z,1008.71
2016-11-16T08:44:28.432Z,1008.64
2016-11-16T08:45:42.913Z,1008.58
2016-11-16T08:47:24.255Z,1008.62
2016-11-16T08:48:39.502Z,1008.57
2016-11-16T08:49:54.134Z,1008.58
2016-11-16T08:51:09.286Z,1008.59
2016-11-16T08:52:23.546Z,1008.63
2016-11-16T08:53:38.087Z,1008.55
2016-11-16T08:54:53.331Z,1008.64
2016-11-16T08:56:11.149Z,1008.58
2016-11-16T08:57:25.680Z,1008.6
2016-11-16T09:01:11.688Z,1008.59
2016-11-16T09:02:39.394Z,1008.52
2016-11-16T09:03:54.399Z,1008.52
2016-11-16T09:05:09.279Z,1008.51
2016-11-16T09:06:24.529Z,1008.52
2016-11-16T09:10:28.629Z,1008.51
2016-11-16T09:11:49.652Z,1008.48
2016-11-16T09:13:04.917Z,1008.49
2016-11-16T09:14:39.288Z,1008.53
2016-11-16T09:17:26.042Z,1008.57
2016-11-16T09:18:41.677Z,1008.53
2016-11-16T09:19:56.330Z,1008.49
2016-11-16T09:23:40.625Z,1008.54
2016-11-16T09:24:55.284Z,1008.51
2016-11-16T09:26:10.409Z,1008.46
2016-11-16T09:27:24.816Z,1008.42
2016-11-16T09:30:37.959Z,1008.29
2016-11-16T09:31:53.383Z,1008.24
2016-11-16T09:33:07.808Z,1008.3
2016-11-16T09:34:41.248Z,1008.26
2016-11-16T09:35:55.969Z,1008.25
2016-11-16T09:37:11.347Z,1008.23
2016-11-16T09:40:25.196Z,1008.11
2016-11-16T09:41:39.776Z,1008.07
2016-11-16T09:42:54.700Z,1008.09
2016-11-16T09:44:09.474Z,1008.11
2016-11-16T09:45:24.237Z,1008.12
2016-11-16T09:46:38.589Z,1008.14
2016-11-16T09:47:53.120Z,1008.1
2016-11-16T09:49:35.332Z,1008.1
2016-11-16T09:50:49.911Z,1007.96
2016-11-16T09:53:04.061Z,1007.96
2016-11-16T09:54:19.861Z,1007.91
2016-11-16T09:55:34.532Z,1007.94
2016-11-16T09:56:48.844Z,1007.95
2016-11-16T09:58:03.547Z,1007.99
2016-11-16T09:59:19.018Z,1007.97
2016-11-16T10:00:34.759Z,1007.92
2016-11-16T10:01:49.725Z,1007.89
2016-11-16T10:03:04.381Z,1007.91
2016-11-16T10:04:19.451Z,1008.02
2016-11-16T10:05:34.357Z,1007.98
2016-11-16T10:06:49.802Z,1007.92
2016-11-16T10:08:05.765Z,1007.88
2016-11-16T10:09:21.808Z,1007.83
2016-11-16T10:10:37.065Z,1007.78
2016-11-16T10:11:51.999Z,1007.76
2016-11-16T10:13:07.464Z,1007.79
2016-11-16T10:14:22.505Z,1007.81
2016-11-16T10:15:37.553Z,1007.69
2016-11-16T10:18:21.988Z,1007.71
2016-11-16T10:19:36.892Z,1007.62
2016-11-16T10:20:51.952Z,1007.66
2016-11-16T10:22:06.972Z,1007.63
2016-11-16T10:23:21.960Z,1007.58
2016-11-16T10:24:37.312Z,1007.66
2016-11-16T10:25:52.058Z,1007.69
2016-11-16T10:27:06.616Z,1007.67
2016-11-16T10:28:21.584Z,1007.77
2016-11-16T10:29:36.081Z,1007.76
2016-11-16T10:30:50.810Z,1007.64
2016-11-16T10:32:05.703Z,1007.65
2016-11-16T10:33:20.272Z,1007.59
2016-11-16T10:34:35.235Z,1007.54
2016-11-16T10:35:50.108Z,1007.47
2016-11-16T10:37:05.052Z,1007.47
2016-11-16T10:38:20.660Z,1007.43
2016-11-16T10:39:50.225Z,1007.4
2016-11-16T10:42:35.085Z,1007.48
2016-11-16T10:43:50.389Z,1007.48
2016-11-16T10:45:05.212Z,1007.46
2016-11-16T10:46:19.806Z,1007.49
2016-11-16T10:47:34.313Z,1007.46
2016-11-16T10:48:49.116Z,1007.43
2016-11-16T10:51:22.499Z,1007.45
2016-11-16T11:01:12.892Z,1007.31
2016-11-16T11:02:31.363Z,1007.2
2016-11-16T11:03:45.977Z,1007.11
2016-11-16T11:05:00.869Z,1007.1
2016-11-16T11:06:15.167Z,1007.03
2016-11-16T11:07:30.023Z,1006.99
2016-11-16T11:08:45.241Z,1007.01
2016-11-16T11:09:59.673Z,1007.04
2016-11-16T11:11:29.024Z,1007.01
2016-11-16T11:14:30.495Z,1006.93
2016-11-16T11:21:40.880Z,1006.93
2016-11-16T11:22:55.776Z,1006.97
2016-11-16T11:27:07.918Z,1006.94
2016-11-16T11:28:24.360Z,1006.93
2016-11-16T11:29:39.882Z,1006.95
2016-11-16T11:30:54.209Z,1006.9
2016-11-16T11:32:08.693Z,1006.87
2016-11-16T11:33:23.426Z,1006.89
2016-11-16T11:34:38.750Z,1006.81
2016-11-16T11:35:53.548Z,1006.82
2016-11-16T11:37:08.506Z,1006.73
2016-11-16T11:38:22.856Z,1006.73
2016-11-16T11:39:37.974Z,1006.68
2016-11-16T11:40:53.165Z,1006.64
2016-11-16T11:42:09.085Z,1006.7
2016-11-16T11:43:23.439Z,1006.67
2016-11-16T11:44:38.281Z,1006.65
2016-11-16T11:45:52.686Z,1006.63
2016-11-16T11:47:07.743Z,1006.62
2016-11-16T11:48:22.927Z,1006.6
2016-11-16T11:49:38.286Z,1006.54
2016-11-16T11:50:52.875Z,1006.46
2016-11-16T11:52:08.549Z,1006.49
2016-11-16T11:53:23.630Z,1006.46
2016-11-16T11:54:38.179Z,1006.5
2016-11-16T11:55:53.067Z,1006.51
2016-11-16T11:57:17.628Z,1006.42
2016-11-16T11:58:48.187Z,1006.4
2016-11-16T12:00:03.024Z,1006.33
2016-11-16T12:01:17.376Z,1006.35
2016-11-16T12:02:31.921Z,1006.26
2016-11-16T12:03:46.751Z,1006.32
2016-11-16T12:05:01.840Z,1006.26
2016-11-16T12:06:17.450Z,1006.23
2016-11-16T12:07:32.423Z,1006.24
2016-11-16T12:08:47.047Z,1006.14
2016-11-16T12:10:02.067Z,1006.16
2016-11-16T12:11:16.916Z,1006.11
2016-11-16T12:12:32.049Z,1006.1
2016-11-16T12:13:46.505Z,1006.13
2016-11-16T12:15:01.532Z,1006.15
2016-11-16T12:16:16.209Z,1006.18
2016-11-16T12:17:31.296Z,1006.17
2016-11-16T12:18:46.367Z,1006.14
2016-11-16T12:20:01.490Z,1006.1
2016-11-16T12:21:16.637Z,1006.1
2016-11-16T12:22:31.844Z,1006.13
2016-11-16T12:23:46.931Z,1006.14
2016-11-16T12:25:01.841Z,1006.11
2016-11-16T12:26:16.495Z,1006.08
2016-11-16T12:27:31.241Z,1006
2016-11-16T12:28:46.206Z,1005.99
2016-11-16T12:30:01.526Z,1005.93
2016-11-16T12:31:16.094Z,1005.91
2016-11-16T12:33:22.065Z,1005.9
2016-11-16T12:34:39.508Z,1005.83
2016-11-16T12:40:05.243Z,1005.84
2016-11-16T12:41:33.405Z,1005.84
2016-11-16T12:42:47.846Z,1005.89
2016-11-16T12:44:03.076Z,1005.92
2016-11-16T12:45:18.923Z,1005.92
2016-11-16T12:46:33.779Z,1005.91
2016-11-16T12:47:48.685Z,1005.89
2016-11-16T12:49:17.933Z,1005.9
2016-11-16T12:50:33.889Z,1005.88
2016-11-16T12:51:48.923Z,1005.92
2016-11-16T12:53:04.496Z,1005.91
2016-11-16T12:54:19.505Z,1005.85
2016-11-16T12:55:34.171Z,1005.88
2016-11-16T12:56:48.498Z,1005.82
2016-11-16T12:58:03.136Z,1005.78
2016-11-16T12:59:18.259Z,1005.77
2016-11-16T13:00:34.423Z,1005.78
2016-11-16T13:01:49.489Z,1005.69
2016-11-16T13:03:04.743Z,1005.71
2016-11-16T13:04:19.524Z,1005.69
2016-11-16T13:08:02.134Z,1005.64
2016-11-16T13:09:16.550Z,1005.54
2016-11-16T13:13:13.915Z,1005.56
2016-11-16T13:14:28.567Z,1005.55
2016-11-16T13:15:43.162Z,1005.55
2016-11-16T13:16:58.950Z,1005.55
2016-11-16T13:18:13.789Z,1005.55
2016-11-16T13:19:28.642Z,1005.55
2016-11-16T13:20:57.947Z,1005.51
2016-11-16T13:26:50.673Z,1005.48
2016-11-16T13:28:06.015Z,1005.42
2016-11-16T13:29:20.565Z,1005.4
2016-11-16T13:30:35.116Z,1005.42
2016-11-16T13:31:50.300Z,1005.38
2016-11-16T13:33:05.850Z,1005.43
2016-11-16T13:34:21.355Z,1005.46
2016-11-16T13:35:36.064Z,1005.47
2016-11-16T13:38:49.163Z,1005.43
2016-11-16T13:40:03.944Z,1005.45
2016-11-16T13:41:19.217Z,1005.36
2016-11-16T13:42:34.108Z,1005.34
2016-11-16T13:43:48.892Z,1005.31
2016-11-16T13:45:03.164Z,1005.22
2016-11-16T13:46:18.008Z,1005.22
2016-11-16T13:47:32.615Z,1005.23
2016-11-16T13:48:47.262Z,1005.23
2016-11-16T13:50:02.057Z,1005.28
2016-11-16T13:51:16.446Z,1005.24
2016-11-16T13:52:31.783Z,1005.2
2016-11-16T13:53:46.652Z,1005.16
2016-11-16T13:55:01.931Z,1005.18
2016-11-16T13:56:16.972Z,1005.1
2016-11-16T13:57:32.229Z,1005.13
2016-11-16T13:58:50.082Z,1005.09
2016-11-16T14:00:04.560Z,1005.11
2016-11-16T14:01:19.151Z,1005.03
2016-11-16T14:02:33.954Z,1005.03
2016-11-16T14:03:49.472Z,1005.07
2016-11-16T14:05:04.894Z,1005.04
2016-11-16T14:06:19.750Z,1005.03
2016-11-16T14:07:35.790Z,1005.04
2016-11-16T14:08:50.649Z,1005.03
2016-11-16T14:10:05.446Z,1005.06
2016-11-16T14:11:21.193Z,1004.99
2016-11-16T14:12:36.111Z,1005.03
2016-11-16T14:13:51.406Z,1004.97
2016-11-16T14:15:06.550Z,1004.95
2016-11-16T14:16:21.163Z,1004.95
2016-11-16T14:17:37.299Z,1005
2016-11-16T14:18:52.885Z,1004.99
2016-11-16T14:20:07.051Z,1004.97
2016-11-16T14:21:40.979Z,1005
2016-11-16T14:22:56.404Z,1004.99
2016-11-16T14:24:11.890Z,1005.02
2016-11-16T14:25:26.917Z,1004.99
2016-11-16T14:26:41.752Z,1005
2016-11-16T14:27:56.552Z,1004.96
2016-11-16T14:29:10.963Z,1004.96
2016-11-16T14:30:26.228Z,1004.95
2016-11-16T14:31:41.777Z,1005
2016-11-16T14:32:57.438Z,1005
2016-11-16T14:34:11.833Z,1004.99
2016-11-16T14:35:26.958Z,1005.01
2016-11-16T14:36:42.630Z,1005.07
2016-11-16T14:37:57.343Z,1005
2016-11-16T14:39:12.156Z,1005.04
2016-11-16T14:40:26.826Z,1005.06
2016-11-16T14:41:41.365Z,1005.09
2016-11-16T14:42:55.822Z,1005.09
2016-11-16T14:44:10.173Z,1005.12
2016-11-16T14:45:24.890Z,1005.11
2016-11-16T14:46:39.319Z,1005.21
2016-11-16T14:47:53.808Z,1005.21
2016-11-16T14:49:08.395Z,1005.15
2016-11-16T14:50:23.020Z,1005.16
2016-11-16T14:51:37.652Z,1005.15
2016-11-16T14:52:52.303Z,1005.14
2016-11-16T14:54:08.256Z,1005.15
2016-11-16T14:55:37.922Z,1005.1
2016-11-16T14:57:04.918Z,1005.07
2016-11-16T14:58:20.931Z,1005.07
2016-11-16T14:59:36.382Z,1005.04
2016-11-16T15:00:50.912Z,1005.05
2016-11-16T15:02:05.519Z,1005.02
2016-11-16T15:03:20.156Z,1005.05
2016-11-16T15:05:01.231Z,1005
2016-11-16T15:06:16.137Z,1005.01
2016-11-16T15:07:37.054Z,1005.02
2016-11-16T15:08:51.636Z,1005.02
2016-11-16T15:15:33.543Z,1005.01
2016-11-16T15:17:07.296Z,1005.01
2016-11-16T15:18:22.056Z,1004.93
2016-11-16T15:22:57.408Z,1004.93
2016-11-16T15:24:12.524Z,1004.9
2016-11-16T15:25:27.301Z,1004.89
2016-11-16T15:26:42.822Z,1004.86
2016-11-16T15:27:57.641Z,1004.86
2016-11-16T15:29:12.653Z,1004.87
2016-11-16T15:30:27.884Z,1004.93
2016-11-16T15:31:42.795Z,1004.93
2016-11-16T15:32:57.413Z,1004.93
2016-11-16T15:34:12.365Z,1004.88
2016-11-16T15:35:27.691Z,1004.87
2016-11-16T15:36:42.648Z,1004.83
2016-11-16T15:38:12.083Z,1004.86
2016-11-16T15:39:27.065Z,1004.89
2016-11-16T15:40:41.899Z,1004.88
2016-11-16T15:41:56.662Z,1004.88
2016-11-16T15:43:11.571Z,1004.83
2016-11-16T15:44:26.430Z,1004.9
2016-11-16T15:45:40.888Z,1004.93
2016-11-16T15:46:55.481Z,1004.92
2016-11-16T15:48:10.490Z,1004.89
2016-11-16T15:49:25.950Z,1004.88
2016-11-16T15:50:40.386Z,1004.87
2016-11-16T15:51:55.049Z,1004.91
2016-11-16T15:53:09.802Z,1004.89
2016-11-16T15:54:24.486Z,1004.89
2016-11-16T15:55:38.885Z,1004.83
2016-11-16T15:56:53.935Z,1004.84
2016-11-16T15:58:23.757Z,1004.87
2016-11-16T15:59:38.220Z,1004.85
2016-11-16T16:00:52.731Z,1004.81
2016-11-16T16:02:07.843Z,1004.78
2016-11-16T16:04:52.008Z,1004.79
2016-11-16T16:06:06.858Z,1004.83
2016-11-16T16:07:22.047Z,1004.83
2016-11-16T16:08:37.768Z,1004.76
2016-11-16T16:09:53.048Z,1004.67
2016-11-16T16:11:07.653Z,1004.69
2016-11-16T16:12:22.498Z,1004.7
2016-11-16T16:13:37.638Z,1004.74
2016-11-16T16:14:52.430Z,1004.72
2016-11-16T16:16:07.125Z,1004.68
2016-11-16T16:17:21.838Z,1004.66
2016-11-16T16:18:36.660Z,1004.62
2016-11-16T16:19:51.805Z,1004.63
2016-11-16T16:21:06.675Z,1004.66
2016-11-16T16:22:21.473Z,1004.68
2016-11-16T16:23:50.992Z,1004.66
2016-11-16T16:25:20.561Z,1004.68
2016-11-16T16:26:34.977Z,1004.68
2016-11-16T16:27:50.327Z,1004.67
2016-11-16T16:29:05.408Z,1004.62
2016-11-16T16:30:20.518Z,1004.65
2016-11-16T16:31:35.238Z,1004.64
2016-11-16T16:32:49.927Z,1004.65
2016-11-16T16:34:05.065Z,1004.62
2016-11-16T16:35:20.203Z,1004.62
2016-11-16T16:36:35.078Z,1004.6
2016-11-16T16:37:50.061Z,1004.62
2016-11-16T16:39:04.830Z,1004.73
2016-11-16T16:40:19.925Z,1004.74
2016-11-16T16:41:37.822Z,1004.68
2016-11-16T16:42:52.532Z,1004.69
2016-11-16T16:44:07.258Z,1004.74
2016-11-16T16:45:21.888Z,1004.72
2016-11-16T16:46:36.499Z,1004.68
2016-11-16T16:47:52.575Z,1004.72
2016-11-16T16:49:07.014Z,1004.7
2016-11-16T16:50:21.826Z,1004.74
2016-11-16T16:51:37.927Z,1004.65
2016-11-16T16:52:52.458Z,1004.59
2016-11-16T16:54:07.421Z,1004.61
2016-11-16T16:55:22.110Z,1004.58
2016-11-16T16:56:37.587Z,1004.64
2016-11-16T16:57:52.602Z,1004.57
2016-11-16T16:59:07.665Z,1004.63
2016-11-16T17:00:22.909Z,1004.5
2016-11-16T17:01:39.024Z,1004.56
2016-11-16T17:02:54.182Z,1004.53
2016-11-16T17:04:08.684Z,1004.52
2016-11-16T17:05:23.229Z,1004.51
2016-11-16T17:06:37.957Z,1004.55
2016-11-16T17:07:52.425Z,1004.5
2016-11-16T17:09:08.078Z,1004.54
2016-11-16T17:10:22.785Z,1004.53
2016-11-16T17:11:39.001Z,1004.52
2016-11-16T17:14:23.821Z,1004.56
2016-11-16T17:15:39.110Z,1004.49
2016-11-16T17:16:54.658Z,1004.52
2016-11-16T17:18:09.864Z,1004.46
2016-11-16T17:19:24.563Z,1004.5
2016-11-16T17:20:58.669Z,1004.47
2016-11-16T17:22:13.116Z,1004.48
2016-11-16T17:23:28.537Z,1004.45
2016-11-16T17:24:43.356Z,1004.41
2016-11-16T17:25:58.015Z,1004.45
2016-11-16T17:27:13.198Z,1004.45
2016-11-16T17:28:27.929Z,1004.4
2016-11-16T17:29:46.964Z,1004.44
2016-11-16T17:31:02.211Z,1004.36
2016-11-16T17:32:17.117Z,1004.4
2016-11-16T17:33:31.866Z,1004.38
2016-11-16T17:35:02.233Z,1004.44
2016-11-16T17:36:32.534Z,1004.4
2016-11-16T17:37:47.772Z,1004.41
2016-11-16T17:39:02.878Z,1004.39
2016-11-16T17:40:18.268Z,1004.44
2016-11-16T17:41:33.451Z,1004.38
2016-11-16T17:42:49.034Z,1004.42
2016-11-16T17:44:03.562Z,1004.42
2016-11-16T17:45:18.983Z,1004.42
2016-11-16T17:46:34.297Z,1004.41
2016-11-16T17:47:49.140Z,1004.39
2016-11-16T17:49:03.728Z,1004.39
2016-11-16T17:50:18.149Z,1004.37
2016-11-16T17:51:33.211Z,1004.4
2016-11-16T17:52:47.784Z,1004.37
2016-11-16T17:54:02.890Z,1004.38
2016-11-16T17:55:19.163Z,1004.31
2016-11-16T17:56:34.441Z,1004.29
2016-11-16T17:57:49.141Z,1004.32
2016-11-16T17:59:03.738Z,1004.29
2016-11-16T18:00:20.877Z,1004.26
2016-11-16T18:01:36.522Z,1004.28
2016-11-16T18:02:51.212Z,1004.33
2016-11-16T18:04:06.649Z,1004.25
2016-11-16T18:05:21.263Z,1004.28
2016-11-16T18:06:35.959Z,1004.23
2016-11-16T18:07:50.974Z,1004.25
2016-11-16T18:09:05.707Z,1004.24
2016-11-16T18:10:21.104Z,1004.28
2016-11-16T18:11:35.764Z,1004.28
2016-11-16T18:12:51.069Z,1004.26
2016-11-16T18:14:05.880Z,1004.24
2016-11-16T18:15:20.550Z,1004.28
2016-11-16T18:16:36.278Z,1004.26
2016-11-16T18:17:51.188Z,1004.3
2016-11-16T18:19:06.052Z,1004.36
2016-11-16T18:20:23.621Z,1004.3
2016-11-16T18:21:38.580Z,1004.31
2016-11-16T18:22:53.795Z,1004.27